createdAt,value
2023-04-19T00:00:00.578Z,6.0
2023-04-19T00:04:00.838Z,6.0
2023-04-19T00:08:00.578Z,5.9
2023-04-19T00:12:00.558Z,5.9
2023-04-19T00:16:00.578Z,5.9
2023-04-19T00:20:00.561Z,5.9
2023-04-19T00:24:00.579Z,5.8
2023-04-19T00:28:00.691Z,5.9
2023-04-19T00:32:00.596Z,5.9
2023-04-19T00:36:00.605Z,5.9
2023-04-19T00:40:00.589Z,5.9
2023-04-19T00:44:00.556Z,6.0
2023-04-19T00:48:00.609Z,6.2
2023-04-19T00:52:00.574Z,6.2
2023-04-19T00:56:00.589Z,6.2
2023-04-19T01:00:00.589Z,6.1
2023-04-19T01:04:00.715Z,6.2
2023-04-19T01:08:00.587Z,6.2
2023-04-19T01:12:00.564Z,6.2
2023-04-19T01:16:00.675Z,6.1
2023-04-19T01:20:00.550Z,6.0
2023-04-19T01:24:00.586Z,6.0
2023-04-19T01:28:00.554Z,5.9
2023-04-19T01:32:00.579Z,5.8
2023-04-19T01:36:00.562Z,5.7
2023-04-19T01:40:00.585Z,5.5
2023-04-19T01:44:00.561Z,5.4
2023-04-19T01:48:00.624Z,5.3
2023-04-19T01:52:00.537Z,5.1
2023-04-19T01:56:00.565Z,4.9
2023-04-19T02:00:00.583Z,5.0
2023-04-19T02:04:00.664Z,4.9
2023-04-19T02:08:00.571Z,4.8
2023-04-19T02:12:00.555Z,4.7
2023-04-19T02:16:00.576Z,4.7
2023-04-19T02:20:00.544Z,4.5
2023-04-19T02:24:00.576Z,4.5
2023-04-19T02:28:00.577Z,4.3
2023-04-19T02:32:00.725Z,4.2
2023-04-19T02:36:00.575Z,4.1
2023-04-19T02:40:00.560Z,4.1
2023-04-19T02:44:00.567Z,4.1
2023-04-19T02:48:00.594Z,3.9
2023-04-19T02:52:00.544Z,3.9
2023-04-19T02:56:00.554Z,3.8
2023-04-19T03:00:00.544Z,3.9
2023-04-19T03:04:00.725Z,3.7
2023-04-19T03:08:00.562Z,3.7
2023-04-19T03:12:00.561Z,3.5
2023-04-19T03:16:00.599Z,3.4
2023-04-19T03:20:00.575Z,3.4
2023-04-19T03:24:01.127Z,3.4
2023-04-19T03:28:00.585Z,3.2
2023-04-19T03:32:00.584Z,3.2
2023-04-19T03:36:00.606Z,3.1
2023-04-19T03:40:00.574Z,3.0
2023-04-19T03:44:00.568Z,2.9
2023-04-19T03:48:02.771Z,3.0
2023-04-19T03:52:00.571Z,2.9
2023-04-19T03:56:00.569Z,2.7
2023-04-19T04:00:00.564Z,2.7
2023-04-19T04:04:04.055Z,2.5
2023-04-19T04:08:00.548Z,2.6
2023-04-19T04:12:00.545Z,2.7
2023-04-19T04:16:00.655Z,2.7
2023-04-19T04:20:00.555Z,2.8
2023-04-19T04:24:00.539Z,2.7
2023-04-19T04:28:00.568Z,2.8
2023-04-19T04:32:00.599Z,2.9
2023-04-19T04:36:00.564Z,2.9
2023-04-19T04:40:00.568Z,3.0
2023-04-19T04:44:12.010Z,3.1
2023-04-19T04:48:00.575Z,3.1
2023-04-19T04:52:00.627Z,3.2
2023-04-19T04:56:00.575Z,3.3
2023-04-19T05:00:00.598Z,3.4
2023-04-19T05:04:00.667Z,3.6
2023-04-19T05:08:00.574Z,3.7
2023-04-19T05:12:00.583Z,3.8
2023-04-19T05:16:00.622Z,3.9
2023-04-19T05:20:00.585Z,4.0
2023-04-19T05:24:00.564Z,4.1
2023-04-19T05:28:00.588Z,4.2
2023-04-19T05:32:00.568Z,4.4
2023-04-19T05:36:00.581Z,4.5
2023-04-19T05:40:00.549Z,4.6
2023-04-19T05:44:00.560Z,4.7
2023-04-19T05:48:00.606Z,4.9
2023-04-19T05:52:00.586Z,5.0
2023-04-19T05:56:00.571Z,5.1
2023-04-19T06:04:00.791Z,5.5
2023-04-19T06:12:00.619Z,6.0
2023-04-19T06:16:00.589Z,6.0
2023-04-19T06:20:00.613Z,6.0
2023-04-19T06:24:00.588Z,6.5
2023-04-19T06:28:00.594Z,6.4
2023-04-19T06:32:00.604Z,6.3
2023-04-19T06:36:00.590Z,6.5
2023-04-19T06:40:00.575Z,6.8
2023-04-19T06:44:00.592Z,7.6
2023-04-19T06:48:00.632Z,7.8
2023-04-19T06:52:00.606Z,8.0
2023-04-19T06:56:00.569Z,8.2
2023-04-19T07:00:00.614Z,8.7
2023-04-19T07:04:00.695Z,8.8
2023-04-19T07:08:00.565Z,8.7
2023-04-19T07:12:00.568Z,9.3
2023-04-19T07:16:00.603Z,9.4
2023-04-19T07:20:00.599Z,10.5
2023-04-19T07:24:00.577Z,9.9
2023-04-19T07:28:00.588Z,10.2
2023-04-19T07:32:00.616Z,11.0
2023-04-19T07:36:00.593Z,10.9
2023-04-19T07:40:00.566Z,10.6
2023-04-19T07:44:00.583Z,11.3
2023-04-19T07:48:00.614Z,11.7
2023-04-19T07:52:00.588Z,11.7
2023-04-19T07:56:00.580Z,11.7
2023-04-19T08:00:00.591Z,11.5
2023-04-19T08:04:01.034Z,11.2
2023-04-19T08:08:00.565Z,12.0
2023-04-19T08:12:00.549Z,11.9
2023-04-19T08:20:00.625Z,12.5
2023-04-19T08:24:00.631Z,12.6
2023-04-19T08:28:00.649Z,12.2
2023-04-19T08:32:00.671Z,12.7
2023-04-19T08:36:00.659Z,12.8
2023-04-19T08:40:00.671Z,13.1
2023-04-19T08:44:00.657Z,11.6
2023-04-19T08:48:02.083Z,11.6
2023-04-19T08:52:00.667Z,13.0
2023-04-19T08:56:10.766Z,13.1
2023-04-19T09:00:00.680Z,12.3
2023-04-19T09:04:10.439Z,13.0
2023-04-19T09:08:00.613Z,12.0
2023-04-19T09:12:00.654Z,12.8
2023-04-19T09:16:00.827Z,12.7
2023-04-19T09:20:00.207Z,13.3
2023-04-19T09:24:01.855Z,12.5
2023-04-19T09:28:00.212Z,11.4
2023-04-19T09:32:00.355Z,12.3
2023-04-19T09:36:00.199Z,13.7
2023-04-19T09:40:00.201Z,14.2
2023-04-19T09:44:15.548Z,12.1
2023-04-19T09:48:00.222Z,11.7
2023-04-19T09:52:00.178Z,12.1
2023-04-19T09:56:01.926Z,11.8
2023-04-19T10:00:00.211Z,13.8
2023-04-19T10:04:14.391Z,13.4
2023-04-19T10:08:00.576Z,11.9
2023-04-19T10:12:06.611Z,14.3
2023-04-19T10:16:11.654Z,14.8
2023-04-19T10:20:00.267Z,15.5
2023-04-19T10:24:00.225Z,14.8
2023-04-19T10:28:00.208Z,14.2
2023-04-19T10:32:00.235Z,14.2
2023-04-19T10:36:00.241Z,15.0
2023-04-19T10:40:00.223Z,15.9
2023-04-19T10:44:00.215Z,15.8
2023-04-19T10:48:00.286Z,15.8
2023-04-19T10:52:00.218Z,12.4
2023-04-19T10:56:00.226Z,13.0
2023-04-19T11:00:00.196Z,13.0
2023-04-19T11:04:00.477Z,13.5
2023-04-19T11:08:00.203Z,13.0
2023-04-19T11:12:00.227Z,13.1
2023-04-19T11:16:00.323Z,14.1
2023-04-19T11:20:00.249Z,14.2
2023-04-19T11:24:00.242Z,13.0
2023-04-19T11:28:00.208Z,13.0
2023-04-19T11:32:00.215Z,13.3
2023-04-19T11:36:00.210Z,13.2
2023-04-19T11:40:01.581Z,13.0
2023-04-19T11:44:00.238Z,12.4
2023-04-19T11:48:00.414Z,12.0
2023-04-19T11:52:00.396Z,12.2
2023-04-19T11:56:00.234Z,12.4
2023-04-19T12:00:00.261Z,12.6
2023-04-19T12:04:00.537Z,12.2
2023-04-19T12:08:00.227Z,12.6
2023-04-19T12:12:00.209Z,12.4
2023-04-19T12:16:00.232Z,13.0
2023-04-19T12:20:00.250Z,13.6
2023-04-19T12:24:00.220Z,14.4
2023-04-19T12:28:00.225Z,13.1
2023-04-19T12:32:00.246Z,12.6
2023-04-19T12:36:00.237Z,12.5
2023-04-19T12:40:00.261Z,12.2
2023-04-19T12:44:00.217Z,12.1
2023-04-19T12:48:00.298Z,12.2
2023-04-19T12:52:00.229Z,11.9
2023-04-19T12:56:00.234Z,11.8
2023-04-19T13:00:00.231Z,11.5
2023-04-19T13:04:00.533Z,11.7
2023-04-19T13:08:00.292Z,11.6
2023-04-19T13:12:00.238Z,11.8
2023-04-19T13:16:00.247Z,11.6
2023-04-19T13:20:00.273Z,11.5
2023-04-19T13:24:00.236Z,11.3
2023-04-19T13:28:00.265Z,11.1
2023-04-19T13:32:00.236Z,11.3
2023-04-19T13:36:00.252Z,11.2
2023-04-19T13:40:14.961Z,10.8
2023-04-19T13:44:00.242Z,10.3
2023-04-19T13:48:00.300Z,10.0
2023-04-19T13:52:00.240Z,9.9
2023-04-19T13:56:00.232Z,9.7
2023-04-19T14:00:00.219Z,9.4
2023-04-19T14:04:00.345Z,9.4
2023-04-19T14:08:00.248Z,8.9
2023-04-19T14:12:00.227Z,8.1
2023-04-19T14:16:00.240Z,7.9
2023-04-19T14:20:00.238Z,7.9
2023-04-19T14:24:00.228Z,7.8
2023-04-19T14:28:00.233Z,7.8
2023-04-19T14:32:07.439Z,7.9
2023-04-19T14:36:00.240Z,7.9
2023-04-19T14:40:00.220Z,7.9
2023-04-19T14:44:00.239Z,7.8
2023-04-19T14:48:00.258Z,7.7
2023-04-19T14:52:00.233Z,7.7
2023-04-19T14:56:00.223Z,7.3
2023-04-19T15:00:00.339Z,7.4
2023-04-19T15:04:00.439Z,7.3
2023-04-19T15:08:00.244Z,7.4
2023-04-19T15:12:00.225Z,7.2
2023-04-19T15:16:03.077Z,7.0
2023-04-19T15:20:00.352Z,6.8
2023-04-19T15:24:00.240Z,6.7
2023-04-19T15:28:00.234Z,6.7
2023-04-19T15:32:00.235Z,6.6
2023-04-19T15:36:00.227Z,6.5
2023-04-19T15:40:00.249Z,6.3
2023-04-19T15:44:00.242Z,5.9
2023-04-19T15:48:00.259Z,5.6
2023-04-19T15:52:00.231Z,5.7
2023-04-19T15:56:00.209Z,5.5
2023-04-19T16:00:00.280Z,5.4
2023-04-19T16:04:00.386Z,5.3
2023-04-19T16:08:00.220Z,5.2
2023-04-19T16:12:00.236Z,5.1
2023-04-19T16:16:00.236Z,5.1
2023-04-19T16:20:00.236Z,5.0
2023-04-19T16:24:00.232Z,5.0
2023-04-19T16:28:00.264Z,5.0
2023-04-19T16:32:00.401Z,5.0
2023-04-19T16:36:00.219Z,5.0
2023-04-19T16:40:00.266Z,5.0
2023-04-19T16:44:00.250Z,5.0
2023-04-19T16:48:00.270Z,4.9
2023-04-19T16:52:00.245Z,4.8
2023-04-19T16:56:00.291Z,4.9
2023-04-19T17:00:00.333Z,4.9
2023-04-19T17:04:00.447Z,4.9
2023-04-19T17:08:00.213Z,4.8
2023-04-19T17:12:00.233Z,4.8
2023-04-19T17:16:00.284Z,4.9
2023-04-19T17:20:00.245Z,4.8
2023-04-19T17:24:00.235Z,4.8
2023-04-19T17:28:00.248Z,4.8
2023-04-19T17:32:00.221Z,4.8
2023-04-19T17:36:00.221Z,4.8
2023-04-19T17:40:00.209Z,4.8
2023-04-19T17:44:00.217Z,4.8
2023-04-19T17:48:00.288Z,4.9
2023-04-19T17:52:00.227Z,5.0
2023-04-19T17:56:00.239Z,5.0
2023-04-19T18:00:00.221Z,5.0
2023-04-19T18:04:00.526Z,5.1
2023-04-19T18:08:00.231Z,5.1
2023-04-19T18:12:00.495Z,5.1
2023-04-19T18:16:00.268Z,5.1
2023-04-19T18:20:00.237Z,5.1
2023-04-19T18:24:00.242Z,5.2
2023-04-19T18:28:00.245Z,5.2
2023-04-19T18:32:00.279Z,5.3
2023-04-19T18:36:00.219Z,5.3
2023-04-19T18:40:00.332Z,5.3
2023-04-19T18:44:26.280Z,5.3
2023-04-19T18:48:00.310Z,5.3
2023-04-19T18:52:00.222Z,5.2
2023-04-19T18:56:00.220Z,5.2
2023-04-19T19:00:00.217Z,5.3
2023-04-19T19:04:21.178Z,5.3
2023-04-19T19:08:00.337Z,5.3
2023-04-19T19:12:00.218Z,5.4
2023-04-19T19:16:00.244Z,5.4
2023-04-19T19:20:00.246Z,5.4
2023-04-19T19:24:00.227Z,5.5
2023-04-19T19:28:06.193Z,5.5
2023-04-19T19:32:00.247Z,5.5
2023-04-19T19:36:00.229Z,5.6
2023-04-19T19:40:03.835Z,5.6
2023-04-19T19:44:00.490Z,5.6
2023-04-19T19:48:01.009Z,5.6
2023-04-19T19:52:00.334Z,5.7
2023-04-19T19:56:00.258Z,5.7
2023-04-19T20:00:17.883Z,5.7
2023-04-19T20:04:00.424Z,5.7
2023-04-19T20:08:01.741Z,5.8
2023-04-19T20:12:00.232Z,5.8
2023-04-19T20:16:00.382Z,5.8
2023-04-19T20:20:00.266Z,5.9
2023-04-19T20:24:00.206Z,5.9
2023-04-19T20:28:00.226Z,5.9
2023-04-19T20:32:00.277Z,5.9
2023-04-19T20:36:00.230Z,5.9
2023-04-19T20:40:00.215Z,5.9
2023-04-19T20:44:00.218Z,5.9
2023-04-19T20:48:00.253Z,5.9
2023-04-19T20:52:00.231Z,5.9
2023-04-19T20:56:00.211Z,5.9
2023-04-19T21:00:00.201Z,5.9
2023-04-19T21:04:00.445Z,6.0
2023-04-19T21:08:00.206Z,5.9
2023-04-19T21:12:00.204Z,6.0
2023-04-19T21:16:00.293Z,6.0
2023-04-19T21:20:00.205Z,6.0
2023-04-19T21:24:00.225Z,6.0
2023-04-19T21:28:00.236Z,6.0
2023-04-19T21:32:00.419Z,6.0
2023-04-19T21:36:00.228Z,6.0
2023-04-19T21:40:00.242Z,6.0
2023-04-19T21:44:00.239Z,6.0
2023-04-19T21:48:00.352Z,6.0
2023-04-19T21:52:00.230Z,6.0
2023-04-19T21:56:00.238Z,6.0
2023-04-19T22:00:00.241Z,6.0
2023-04-19T22:04:00.363Z,6.0
2023-04-19T22:08:00.240Z,6.0
2023-04-19T22:12:00.360Z,6.0
2023-04-19T22:16:00.301Z,6.0
2023-04-19T22:20:00.234Z,6.0
2023-04-19T22:24:00.232Z,5.9
2023-04-19T22:28:00.236Z,6.0
2023-04-19T22:32:00.335Z,6.0
2023-04-19T22:36:00.197Z,5.9
2023-04-19T22:40:00.232Z,6.0
2023-04-19T22:44:00.283Z,6.0
2023-04-19T22:48:00.310Z,6.0
2023-04-19T22:52:00.230Z,6.0
2023-04-19T22:56:00.222Z,6.0
2023-04-19T23:00:00.221Z,5.9
2023-04-19T23:04:00.265Z,6.0
2023-04-19T23:08:00.226Z,6.0
2023-04-19T23:12:00.209Z,6.0
2023-04-19T23:16:00.257Z,6.0
2023-04-19T23:20:00.262Z,5.9
2023-04-19T23:24:00.285Z,6.0
2023-04-19T23:28:00.227Z,6.0
2023-04-19T23:32:00.239Z,6.0
2023-04-19T23:36:00.228Z,6.0
2023-04-19T23:40:00.245Z,6.0
2023-04-19T23:44:00.229Z,6.0
2023-04-19T23:48:00.266Z,6.0
2023-04-19T23:52:00.215Z,6.0
2023-04-19T23:56:00.232Z,6.0
